createdAt,value
2023-03-01T00:00:52.663Z,18.90
2023-03-01T00:02:59.384Z,19.00
2023-03-01T00:05:06.687Z,19.00
2023-03-01T00:07:15.184Z,19.10
2023-03-01T00:09:22.573Z,19.10
2023-03-01T00:11:30.982Z,19.20
2023-03-01T00:13:38.670Z,19.20
2023-03-01T00:15:45.954Z,19.30
2023-03-01T00:17:52.935Z,19.30
2023-03-01T00:19:59.854Z,19.40
2023-03-01T00:22:07.296Z,19.40
2023-03-01T00:24:15.963Z,19.50
2023-03-01T00:26:25.240Z,19.50
2023-03-01T00:28:31.919Z,19.60
2023-03-01T00:30:38.986Z,19.60
2023-03-01T00:32:45.822Z,19.70
2023-03-01T00:34:57.714Z,19.70
2023-03-01T00:37:07.145Z,19.70
2023-03-01T00:39:17.861Z,19.80
2023-03-01T00:41:26.731Z,19.80
2023-03-01T00:43:38.636Z,19.80
2023-03-01T00:45:45.523Z,19.90
2023-03-01T00:47:53.346Z,19.90
2023-03-01T00:50:00.170Z,20.00
2023-03-01T00:52:07.352Z,20.00
2023-03-01T00:54:16.276Z,20.10
2023-03-01T00:56:23.710Z,20.10
2023-03-01T00:58:30.740Z,20.20
2023-03-01T01:00:37.991Z,20.20
2023-03-01T01:02:45.224Z,20.20
2023-03-01T01:04:52.742Z,20.30
2023-03-01T01:06:59.670Z,20.40
2023-03-01T01:09:07.685Z,20.40
2023-03-01T01:11:17.256Z,20.50
2023-03-01T01:13:24.336Z,20.50
2023-03-01T01:15:31.237Z,20.60
2023-03-01T01:17:38.237Z,20.70
2023-03-01T01:19:45.426Z,20.80
2023-03-01T01:21:52.601Z,20.90
2023-03-01T01:23:59.870Z,21.00
2023-03-01T01:26:11.176Z,21.10
2023-03-01T01:28:19.839Z,21.20
2023-03-01T01:30:26.857Z,21.20
2023-03-01T01:32:33.940Z,21.20
2023-03-01T01:34:40.760Z,21.30
2023-03-01T01:36:48.411Z,21.30
2023-03-01T01:38:55.085Z,21.40
2023-03-01T01:41:02.255Z,21.50
2023-03-01T01:43:13.283Z,21.60
2023-03-01T01:45:38.428Z,21.60
2023-03-01T01:47:45.402Z,21.70
2023-03-01T01:49:55.248Z,21.70
2023-03-01T01:52:08.726Z,21.80
2023-03-01T01:54:24.511Z,21.80
2023-03-01T01:56:33.066Z,21.90
2023-03-01T01:58:41.383Z,22.00
2023-03-01T02:00:50.874Z,22.10
2023-03-01T02:03:01.973Z,22.20
2023-03-01T02:05:14.842Z,22.20
2023-03-01T02:07:24.550Z,22.30
2023-03-01T02:09:32.340Z,22.40
2023-03-01T02:11:40.700Z,22.50
2023-03-01T02:13:48.404Z,22.60
2023-03-01T02:15:57.585Z,22.60
2023-03-01T02:18:05.012Z,22.70
2023-03-01T02:20:23.409Z,22.80
2023-03-01T02:22:32.737Z,22.80
2023-03-01T02:24:52.462Z,22.90
2023-03-01T02:27:01.847Z,23.00
2023-03-01T02:29:11.280Z,23.10
2023-03-01T02:31:38.221Z,23.20
2023-03-01T02:33:46.944Z,23.30
2023-03-01T02:35:54.031Z,23.40
2023-03-01T02:38:02.840Z,23.50
2023-03-01T02:40:14.324Z,23.50
2023-03-01T02:42:27.297Z,23.60
2023-03-01T02:44:36.072Z,23.70
2023-03-01T02:46:48.502Z,23.80
2023-03-01T02:48:57.131Z,23.80
2023-03-01T02:51:17.320Z,23.90
2023-03-01T02:53:29.773Z,23.90
2023-03-01T02:55:37.024Z,23.90
2023-03-01T02:57:46.390Z,24.00
2023-03-01T02:59:58.405Z,24.10
2023-03-01T03:02:05.668Z,24.20
2023-03-01T03:04:14.951Z,24.20
2023-03-01T03:06:21.927Z,24.40
2023-03-01T03:08:29.376Z,24.50
2023-03-01T03:10:38.334Z,24.60
2023-03-01T03:12:45.775Z,24.70
2023-03-01T03:14:54.394Z,24.80
2023-03-01T03:17:01.726Z,25.00
2023-03-01T03:19:09.162Z,25.10
2023-03-01T03:21:16.809Z,25.20
2023-03-01T03:23:24.088Z,25.30
2023-03-01T03:25:32.656Z,25.40
2023-03-01T03:27:39.885Z,25.50
2023-03-01T03:29:47.027Z,25.50
2023-03-01T03:31:55.938Z,25.60
2023-03-01T03:34:02.965Z,25.70
2023-03-01T03:36:19.723Z,25.80
2023-03-01T03:38:26.759Z,25.80
2023-03-01T03:40:35.161Z,25.90
2023-03-01T03:42:42.240Z,26.00
2023-03-01T03:44:49.113Z,26.00
2023-03-01T03:46:57.932Z,26.10
2023-03-01T03:49:04.704Z,26.20
2023-03-01T03:51:14.038Z,26.30
2023-03-01T03:53:21.579Z,26.40
2023-03-01T03:55:32.461Z,26.40
2023-03-01T03:57:39.529Z,26.50
2023-03-01T03:59:46.363Z,26.50
2023-03-01T04:01:53.692Z,26.60
2023-03-01T04:04:06.088Z,26.70
2023-03-01T04:06:12.964Z,26.80
2023-03-01T04:08:21.941Z,26.90
2023-03-01T04:10:29.169Z,27.00
2023-03-01T04:12:36.150Z,27.20
2023-03-01T04:14:43.227Z,27.30
2023-03-01T04:16:50.094Z,27.40
2023-03-01T04:18:57.391Z,27.40
2023-03-01T04:21:06.361Z,27.50
2023-03-01T04:23:17.991Z,27.60
2023-03-01T04:25:24.868Z,27.60
2023-03-01T04:27:32.666Z,27.60
2023-03-01T04:29:39.416Z,27.70
2023-03-01T04:31:46.384Z,27.80
2023-03-01T04:33:55.019Z,27.90
2023-03-01T04:36:02.131Z,28.00
2023-03-01T04:38:11.372Z,28.10
2023-03-01T04:40:19.373Z,28.20
2023-03-01T04:42:26.211Z,28.30
2023-03-01T04:44:33.190Z,28.30
2023-03-01T04:46:40.267Z,28.50
2023-03-01T04:48:49.261Z,28.60
2023-03-01T04:50:56.474Z,28.60
2023-03-01T04:53:03.347Z,28.70
2023-03-01T04:55:13.916Z,28.70
2023-03-01T04:57:20.839Z,28.70
2023-03-01T04:59:28.072Z,28.80
2023-03-01T05:01:34.942Z,28.90
2023-03-01T05:03:43.531Z,29.00
2023-03-01T05:05:52.019Z,29.10
2023-03-01T05:08:01.000Z,29.30
2023-03-01T05:10:07.977Z,29.40
2023-03-01T05:12:16.789Z,29.50
2023-03-01T05:14:23.877Z,29.50
2023-03-01T05:16:34.877Z,29.60
2023-03-01T05:18:43.506Z,29.60
2023-03-01T05:20:50.482Z,29.60
2023-03-01T05:22:58.945Z,29.50
2023-03-01T05:25:06.024Z,29.60
2023-03-01T05:27:14.494Z,29.60
2023-03-01T05:29:26.886Z,29.70
2023-03-01T05:31:32.691Z,29.70
2023-03-01T05:33:40.899Z,29.80
2023-03-01T05:35:48.502Z,30.00
2023-03-01T05:37:56.231Z,30.10
2023-03-01T05:40:03.002Z,30.10
2023-03-01T05:42:10.644Z,30.10
2023-03-01T05:44:17.979Z,30.20
2023-03-01T05:46:26.698Z,30.20
2023-03-01T05:48:34.085Z,30.30
2023-03-01T05:50:43.476Z,30.30
2023-03-01T05:52:52.212Z,30.40
2023-03-01T05:54:59.111Z,30.60
2023-03-01T05:57:06.094Z,30.60
2023-03-01T05:59:12.759Z,30.60
2023-03-01T06:01:19.694Z,30.60
2023-03-01T06:03:29.221Z,30.70
2023-03-01T06:05:36.567Z,30.70
2023-03-01T06:07:43.792Z,30.90
2023-03-01T06:09:50.818Z,30.90
2023-03-01T06:11:57.641Z,30.90
2023-03-01T06:14:04.825Z,31.00
2023-03-01T06:16:12.713Z,31.10
2023-03-01T06:18:19.910Z,31.10
2023-03-01T06:20:30.380Z,31.10
2023-03-01T06:22:37.187Z,31.10
2023-03-01T06:24:43.859Z,31.10
2023-03-01T06:26:50.834Z,31.20
2023-03-01T06:28:57.555Z,31.30
2023-03-01T06:31:04.550Z,31.30
2023-03-01T06:33:11.302Z,31.30
2023-03-01T06:35:20.175Z,31.40
2023-03-01T06:37:28.840Z,31.50
2023-03-01T06:39:36.182Z,31.60
2023-03-01T06:41:43.512Z,31.70
2023-03-01T06:43:50.632Z,31.80
2023-03-01T06:45:57.710Z,31.90
2023-03-01T06:48:09.252Z,31.90
2023-03-01T06:50:16.976Z,31.80
2023-03-01T06:52:23.720Z,31.70
2023-03-01T06:54:32.693Z,31.70
2023-03-01T06:56:39.473Z,31.70
2023-03-01T06:58:46.392Z,31.80
2023-03-01T07:00:53.106Z,31.90
2023-03-01T07:03:02.554Z,32.10
2023-03-01T07:05:10.644Z,32.00
2023-03-01T07:07:17.621Z,32.00
2023-03-01T07:09:24.456Z,32.10
2023-03-01T07:11:33.267Z,32.10
2023-03-01T07:13:40.140Z,32.10
2023-03-01T07:15:47.097Z,32.10
2023-03-01T07:17:53.907Z,32.10
2023-03-01T07:20:01.581Z,32.20
2023-03-01T07:22:09.734Z,32.20
2023-03-01T07:24:16.927Z,32.20
2023-03-01T07:26:25.293Z,32.30
2023-03-01T07:28:37.887Z,32.40
2023-03-01T07:30:44.555Z,32.40
2023-03-01T07:32:52.715Z,32.40
2023-03-01T07:35:00.763Z,32.40
2023-03-01T07:37:07.634Z,32.40
2023-03-01T07:39:15.126Z,32.30
2023-03-01T07:41:22.457Z,32.30
2023-03-01T07:43:29.547Z,32.20
2023-03-01T07:45:38.631Z,32.10
2023-03-01T07:47:46.154Z,32.10
2023-03-01T07:49:53.031Z,32.10
2023-03-01T07:52:00.527Z,32.10
2023-03-01T07:54:07.603Z,32.10
2023-03-01T07:56:16.164Z,32.20
2023-03-01T07:58:22.939Z,32.30
2023-03-01T08:00:30.066Z,32.40
2023-03-01T08:02:38.432Z,32.50
2023-03-01T08:04:45.403Z,32.60
2023-03-01T08:06:52.375Z,32.60
2023-03-01T08:09:00.324Z,32.60
2023-03-01T08:11:08.538Z,32.60
2023-03-01T08:13:15.812Z,32.50
2023-03-01T08:15:22.584Z,32.60
2023-03-01T08:17:29.520Z,32.60
2023-03-01T08:19:38.380Z,32.60
2023-03-01T08:21:45.407Z,32.50
2023-03-01T08:23:52.286Z,32.50
2023-03-01T08:25:59.436Z,32.50
2023-03-01T08:28:06.338Z,32.50
2023-03-01T08:30:14.592Z,32.60
2023-03-01T08:32:21.699Z,32.70
2023-03-01T08:34:28.803Z,32.70
2023-03-01T08:36:40.442Z,32.70
2023-03-01T08:38:47.878Z,32.70
2023-03-01T08:40:54.535Z,32.70
2023-03-01T08:43:02.923Z,32.70
2023-03-01T08:45:10.706Z,32.70
2023-03-01T08:47:18.295Z,32.70
2023-03-01T08:49:25.694Z,32.80
2023-03-01T08:51:34.610Z,32.70
2023-03-01T08:53:43.322Z,32.70
2023-03-01T08:55:50.847Z,32.70
2023-03-01T08:57:57.766Z,32.70
2023-03-01T09:00:05.332Z,32.70
2023-03-01T09:02:17.621Z,32.70
2023-03-01T09:04:24.814Z,32.70
2023-03-01T09:06:34.967Z,32.70
2023-03-01T09:08:45.015Z,32.70
2023-03-01T09:10:51.938Z,32.60
2023-03-01T09:12:58.917Z,32.60
2023-03-01T09:15:05.998Z,32.60
2023-03-01T09:17:13.052Z,32.60
2023-03-01T09:19:20.100Z,32.60
2023-03-01T09:21:39.733Z,32.50
2023-03-01T09:23:50.953Z,32.50
2023-03-01T09:25:58.147Z,32.50
2023-03-01T09:28:05.630Z,32.40
2023-03-01T09:30:14.306Z,32.40
2023-03-01T09:32:21.055Z,32.30
2023-03-01T09:34:28.180Z,32.30
2023-03-01T09:36:35.383Z,32.30
2023-03-01T09:38:42.558Z,32.30
2023-03-01T09:40:51.887Z,32.20
2023-03-01T09:43:04.037Z,32.20
2023-03-01T09:45:19.253Z,32.20
2023-03-01T09:47:30.484Z,32.10
2023-03-01T09:49:39.313Z,32.00
2023-03-01T09:51:58.874Z,32.00
2023-03-01T09:54:07.035Z,32.00
2023-03-01T09:56:24.397Z,31.90
2023-03-01T09:58:50.782Z,31.90
2023-03-01T10:00:58.578Z,31.80
2023-03-01T10:03:13.749Z,31.70
2023-03-01T10:05:40.846Z,31.70
2023-03-01T10:08:01.084Z,31.60
2023-03-01T10:10:11.080Z,31.60
2023-03-01T10:12:22.052Z,31.50
2023-03-01T10:14:37.219Z,31.50
2023-03-01T10:16:50.702Z,31.50
2023-03-01T10:19:02.067Z,31.40
2023-03-01T10:21:14.637Z,31.40
2023-03-01T10:23:21.580Z,31.30
2023-03-01T10:25:50.103Z,31.20
2023-03-01T10:28:03.125Z,31.20
2023-03-01T10:30:18.272Z,31.10
2023-03-01T10:32:25.445Z,31.10
2023-03-01T10:34:34.642Z,31.00
2023-03-01T10:36:44.434Z,31.00
2023-03-01T10:38:56.888Z,30.90
2023-03-01T10:41:09.088Z,30.90
2023-03-01T10:43:17.754Z,30.80
2023-03-01T10:45:36.875Z,30.70
2023-03-01T10:47:43.946Z,30.70
2023-03-01T10:50:05.107Z,30.60
2023-03-01T10:52:23.858Z,30.50
2023-03-01T10:54:32.729Z,30.50
2023-03-01T10:56:53.073Z,30.30
2023-03-01T10:59:06.036Z,30.30
2023-03-01T11:01:30.815Z,30.20
2023-03-01T11:03:42.472Z,30.20
2023-03-01T11:05:59.020Z,30.00
2023-03-01T11:08:07.071Z,30.00
2023-03-01T11:10:20.865Z,29.90
2023-03-01T11:12:28.245Z,29.80
2023-03-01T11:14:42.800Z,29.60
2023-03-01T11:16:51.384Z,29.50
2023-03-01T11:19:03.321Z,29.40
2023-03-01T11:21:12.386Z,29.30
2023-03-01T11:23:20.742Z,29.30
2023-03-01T11:25:31.599Z,29.20
2023-03-01T11:27:42.219Z,29.20
2023-03-01T11:29:56.212Z,29.10
2023-03-01T11:32:06.213Z,29.00
2023-03-01T11:34:18.819Z,28.90
2023-03-01T11:36:33.118Z,28.90
2023-03-01T11:38:42.244Z,28.80
2023-03-01T11:40:56.126Z,28.70
2023-03-01T11:43:16.746Z,28.60
2023-03-01T11:45:28.874Z,28.60
2023-03-01T11:47:58.843Z,28.50
2023-03-01T11:50:30.241Z,28.40
2023-03-01T11:52:51.806Z,28.40
2023-03-01T11:55:21.158Z,28.20
2023-03-01T11:57:44.458Z,28.20
2023-03-01T12:00:08.956Z,28.10
2023-03-01T12:02:39.661Z,28.00
2023-03-01T12:05:07.959Z,27.90
2023-03-01T12:07:24.466Z,27.80
2023-03-01T12:09:57.558Z,27.80
2023-03-01T12:12:33.705Z,27.70
2023-03-01T12:14:56.208Z,27.70
2023-03-01T12:17:14.161Z,27.70
2023-03-01T12:19:37.711Z,27.70
2023-03-01T12:22:00.556Z,27.60
2023-03-01T12:24:29.959Z,27.60
2023-03-01T12:26:39.465Z,27.50
2023-03-01T12:29:06.289Z,27.40
2023-03-01T12:32:04.732Z,27.40
2023-03-01T12:34:28.845Z,27.30
2023-03-01T12:36:56.717Z,27.20
2023-03-01T12:39:14.138Z,27.10
2023-03-01T12:41:48.510Z,27.00
2023-03-01T12:44:05.365Z,26.90
2023-03-01T12:46:24.990Z,26.80
2023-03-01T12:48:48.921Z,26.70
2023-03-01T12:51:01.319Z,26.60
2023-03-01T12:53:08.611Z,26.50
2023-03-01T12:55:28.690Z,26.40
2023-03-01T12:57:41.040Z,26.30
2023-03-01T13:00:02.661Z,26.30
2023-03-01T13:02:21.465Z,26.20
2023-03-01T13:04:54.506Z,26.10
2023-03-01T13:07:19.753Z,26.10
2023-03-01T13:09:34.359Z,26.00
2023-03-01T13:11:45.383Z,26.00
2023-03-01T13:13:53.586Z,25.90
2023-03-01T13:16:01.435Z,25.90
2023-03-01T13:18:31.261Z,25.80
2023-03-01T13:20:50.367Z,25.80
2023-03-01T13:23:09.876Z,25.80
2023-03-01T13:25:24.321Z,25.80
2023-03-01T13:27:32.843Z,25.70
2023-03-01T13:29:49.440Z,25.70
2023-03-01T13:32:05.907Z,25.70
2023-03-01T13:35:06.833Z,25.70
2023-03-01T13:37:23.130Z,25.60
2023-03-01T13:39:42.549Z,25.50
2023-03-01T13:41:55.787Z,25.40
2023-03-01T13:44:03.322Z,25.30
2023-03-01T13:46:16.022Z,25.20
2023-03-01T13:48:28.378Z,25.20
2023-03-01T13:50:44.728Z,25.10
2023-03-01T13:52:59.590Z,25.10
2023-03-01T13:55:10.610Z,25.10
2023-03-01T13:57:25.685Z,25.10
2023-03-01T13:59:32.859Z,25.10
2023-03-01T14:01:43.318Z,25.00
2023-03-01T14:03:52.457Z,25.00
2023-03-01T14:06:20.434Z,25.00
2023-03-01T14:08:29.663Z,25.00
2023-03-01T14:10:58.541Z,24.90
2023-03-01T14:13:21.586Z,24.90
2023-03-01T14:15:35.909Z,24.90
2023-03-01T14:18:03.799Z,24.90
2023-03-01T14:20:17.021Z,24.80
2023-03-01T14:22:26.815Z,24.80
2023-03-01T14:24:36.351Z,24.80
2023-03-01T14:26:45.992Z,24.70
2023-03-01T14:28:54.596Z,24.70
2023-03-01T14:31:02.640Z,24.60
2023-03-01T14:33:21.667Z,24.60
2023-03-01T14:35:30.748Z,24.50
2023-03-01T14:37:38.793Z,24.50
2023-03-01T14:39:45.927Z,24.40
2023-03-01T14:41:56.209Z,24.40
2023-03-01T14:44:06.075Z,24.30
2023-03-01T14:46:23.474Z,24.30
2023-03-01T14:48:33.351Z,24.30
2023-03-01T14:50:44.473Z,24.30
2023-03-01T14:52:56.132Z,24.20
2023-03-01T14:55:06.061Z,24.20
2023-03-01T14:57:21.065Z,24.20
2023-03-01T14:59:28.146Z,24.20
2023-03-01T15:01:35.374Z,24.20
2023-03-01T15:03:45.845Z,24.10
2023-03-01T15:05:53.072Z,24.10
2023-03-01T15:08:01.227Z,24.20
2023-03-01T15:10:17.574Z,24.20
2023-03-01T15:12:45.948Z,24.10
2023-03-01T15:15:03.302Z,24.10
2023-03-01T15:17:31.196Z,24.10
2023-03-01T15:19:39.355Z,24.10
2023-03-01T15:21:51.850Z,24.00
2023-03-01T15:24:01.610Z,24.10
2023-03-01T15:26:08.541Z,24.00
2023-03-01T15:28:25.121Z,24.00
2023-03-01T15:30:39.307Z,23.90
2023-03-01T15:32:46.541Z,23.90
2023-03-01T15:34:53.398Z,23.80
2023-03-01T15:37:02.540Z,23.80
2023-03-01T15:39:09.929Z,23.70
2023-03-01T15:41:29.399Z,23.70
2023-03-01T15:43:46.851Z,23.70
2023-03-01T15:46:01.577Z,23.60
2023-03-01T15:48:09.567Z,23.60
2023-03-01T15:50:24.534Z,23.60
2023-03-01T15:52:33.669Z,23.60
2023-03-01T15:54:41.209Z,23.70
2023-03-01T15:56:48.200Z,23.80
2023-03-01T15:58:56.752Z,23.80
2023-03-01T16:01:03.987Z,23.80
2023-03-01T16:03:12.804Z,23.90
2023-03-01T16:05:25.182Z,23.90
2023-03-01T16:07:31.218Z,23.90
2023-03-01T16:09:38.346Z,23.90
2023-03-01T16:11:45.331Z,23.90
2023-03-01T16:13:53.864Z,23.80
2023-03-01T16:16:02.864Z,23.90
2023-03-01T16:18:12.246Z,23.90
2023-03-01T16:20:28.025Z,23.80
2023-03-01T16:22:36.393Z,23.90
2023-03-01T16:24:43.216Z,23.90
2023-03-01T16:26:50.289Z,23.90
2023-03-01T16:28:59.982Z,23.90
2023-03-01T16:31:09.066Z,23.80
2023-03-01T16:33:30.347Z,23.90
2023-03-01T16:35:45.591Z,23.80
2023-03-01T16:37:54.616Z,23.80
2023-03-01T16:40:01.652Z,23.70
2023-03-01T16:42:08.313Z,23.60
2023-03-01T16:44:15.344Z,23.60
2023-03-01T16:46:25.697Z,23.50
2023-03-01T16:48:32.678Z,23.40
2023-03-01T16:50:39.549Z,23.40
2023-03-01T16:52:46.733Z,23.40
2023-03-01T16:54:53.604Z,23.30
2023-03-01T16:57:00.785Z,23.30
2023-03-01T16:59:07.508Z,23.30
2023-03-01T17:01:15.982Z,23.30
2023-03-01T17:03:24.672Z,23.30
2023-03-01T17:05:32.072Z,23.30
2023-03-01T17:07:39.307Z,23.30
2023-03-01T17:09:46.393Z,23.20
2023-03-01T17:11:53.515Z,23.20
2023-03-01T17:14:00.545Z,23.20
2023-03-01T17:16:09.201Z,23.10
2023-03-01T17:18:16.393Z,23.10
2023-03-01T17:20:25.009Z,23.00
2023-03-01T17:22:44.576Z,23.00
2023-03-01T17:24:52.480Z,22.90
2023-03-01T17:26:59.504Z,22.80
2023-03-01T17:29:06.854Z,22.70
2023-03-01T17:31:14.040Z,22.70
2023-03-01T17:33:22.258Z,22.70
2023-03-01T17:35:30.876Z,22.70
2023-03-01T17:37:38.819Z,22.70
2023-03-01T17:39:45.452Z,22.70
2023-03-01T17:41:52.437Z,22.70
2023-03-01T17:43:59.199Z,22.70
2023-03-01T17:46:06.391Z,22.50
2023-03-01T17:48:13.355Z,22.40
2023-03-01T17:50:20.652Z,22.40
2023-03-01T17:52:29.022Z,22.40
2023-03-01T17:54:36.138Z,22.40
2023-03-01T17:56:43.629Z,22.40
2023-03-01T17:58:50.698Z,22.30
2023-03-01T18:00:57.358Z,22.30
2023-03-01T18:03:04.839Z,22.30
2023-03-01T18:05:12.720Z,22.20
2023-03-01T18:07:19.829Z,22.20
2023-03-01T18:09:29.772Z,22.10
2023-03-01T18:11:37.324Z,22.10
2023-03-01T18:13:44.462Z,22.00
2023-03-01T18:15:51.222Z,22.00
2023-03-01T18:17:58.210Z,21.90
2023-03-01T18:20:05.026Z,21.90
2023-03-01T18:22:12.149Z,21.90
2023-03-01T18:24:19.488Z,21.90
2023-03-01T18:26:28.650Z,21.90
2023-03-01T18:28:35.900Z,21.80
2023-03-01T18:30:42.702Z,21.80
2023-03-01T18:32:49.697Z,21.70
2023-03-01T18:34:56.377Z,21.70
2023-03-01T18:37:09.058Z,21.70
2023-03-01T18:39:18.717Z,21.60
2023-03-01T18:41:28.784Z,21.50
2023-03-01T18:43:35.650Z,21.40
2023-03-01T18:45:43.369Z,21.40
2023-03-01T18:47:50.878Z,21.40
2023-03-01T18:49:57.861Z,21.40
2023-03-01T18:52:05.090Z,21.50
2023-03-01T18:54:14.021Z,21.50
2023-03-01T18:56:20.972Z,21.40
2023-03-01T18:58:29.820Z,21.50
2023-03-01T19:00:36.833Z,21.50
2023-03-01T19:02:44.228Z,21.50
2023-03-01T19:04:54.018Z,21.60
2023-03-01T19:07:03.100Z,21.70
2023-03-01T19:09:12.319Z,21.70
2023-03-01T19:11:20.104Z,21.70
2023-03-01T19:13:28.795Z,21.80
2023-03-01T19:15:35.730Z,21.70
2023-03-01T19:17:42.421Z,21.70
2023-03-01T19:19:51.141Z,21.60
2023-03-01T19:22:05.685Z,21.50
2023-03-01T19:24:13.865Z,21.50
2023-03-01T19:26:22.736Z,21.40
2023-03-01T19:28:31.598Z,21.40
2023-03-01T19:30:38.431Z,21.40
2023-03-01T19:32:45.356Z,21.50
2023-03-01T19:34:52.289Z,21.50
2023-03-01T19:36:59.565Z,21.60
2023-03-01T19:39:09.152Z,21.60
2023-03-01T19:41:19.136Z,21.60
2023-03-01T19:43:26.880Z,21.60
2023-03-01T19:45:35.397Z,21.60
2023-03-01T19:47:42.199Z,21.60
2023-03-01T19:49:49.314Z,21.60
2023-03-01T19:51:55.976Z,21.60
2023-03-01T19:54:03.455Z,21.60
2023-03-01T19:56:11.630Z,21.60
2023-03-01T19:58:19.212Z,21.60
2023-03-01T20:00:26.239Z,21.50
2023-03-01T20:02:35.591Z,21.40
2023-03-01T20:04:42.545Z,21.40
2023-03-01T20:06:50.643Z,21.30
2023-03-01T20:08:57.376Z,21.30
2023-03-01T20:11:06.240Z,21.30
2023-03-01T20:13:15.166Z,21.30
2023-03-01T20:15:22.353Z,21.40
2023-03-01T20:17:28.953Z,21.30
2023-03-01T20:19:37.171Z,21.30
2023-03-01T20:21:43.674Z,21.30
2023-03-01T20:23:50.247Z,21.20
2023-03-01T20:26:06.503Z,21.10
2023-03-01T20:28:13.064Z,21.10
2023-03-01T20:30:20.334Z,21.10
2023-03-01T20:32:27.127Z,21.00
2023-03-01T20:34:35.637Z,21.00
2023-03-01T20:36:43.790Z,21.00
2023-03-01T20:38:51.023Z,21.00
2023-03-01T20:41:02.453Z,21.10
2023-03-01T20:43:09.590Z,21.10
2023-03-01T20:45:16.357Z,21.10
2023-03-01T20:47:24.224Z,21.10
2023-03-01T20:49:30.926Z,21.10
2023-03-01T20:51:39.698Z,21.10
2023-03-01T20:53:46.569Z,21.10
2023-03-01T20:55:53.803Z,21.10
2023-03-01T20:58:00.523Z,21.10
2023-03-01T21:00:09.548Z,21.10
2023-03-01T21:02:16.372Z,21.10
2023-03-01T21:04:23.397Z,21.10
2023-03-01T21:06:30.372Z,21.00
2023-03-01T21:08:39.724Z,21.00
2023-03-01T21:10:46.685Z,21.00
2023-03-01T21:12:54.174Z,20.90
2023-03-01T21:15:00.943Z,20.90
2023-03-01T21:17:07.976Z,20.80
2023-03-01T21:19:14.749Z,20.80
2023-03-01T21:21:23.669Z,20.80
2023-03-01T21:23:31.212Z,20.80
2023-03-01T21:25:39.880Z,20.80
2023-03-01T21:27:46.752Z,20.80
2023-03-01T21:29:53.986Z,20.90
2023-03-01T21:32:01.657Z,20.90
2023-03-01T21:34:10.861Z,20.80
2023-03-01T21:36:17.734Z,20.80
2023-03-01T21:38:24.613Z,20.70
2023-03-01T21:40:31.328Z,20.70
2023-03-01T21:42:40.301Z,20.70
2023-03-01T21:44:47.146Z,20.70
2023-03-01T21:46:54.460Z,20.70
2023-03-01T21:49:01.848Z,20.70
2023-03-01T21:51:09.476Z,20.60
2023-03-01T21:53:16.312Z,20.60
2023-03-01T21:55:23.748Z,20.50
2023-03-01T21:57:30.677Z,20.50
2023-03-01T21:59:39.492Z,20.40
2023-03-01T22:01:47.089Z,20.40
2023-03-01T22:03:54.727Z,20.40
2023-03-01T22:06:03.290Z,20.40
2023-03-01T22:08:11.091Z,20.40
2023-03-01T22:10:17.855Z,20.40
2023-03-01T22:12:24.831Z,20.40
2023-03-01T22:14:32.369Z,20.40
2023-03-01T22:16:42.932Z,20.40
2023-03-01T22:18:50.317Z,20.40
2023-03-01T22:20:57.661Z,20.40
2023-03-01T22:23:04.627Z,20.40
2023-03-01T22:25:12.784Z,20.30
2023-03-01T22:27:19.641Z,20.30
2023-03-01T22:29:28.847Z,20.20
2023-03-01T22:31:35.769Z,20.20
2023-03-01T22:33:44.279Z,20.10
2023-03-01T22:35:51.467Z,20.00
2023-03-01T22:37:58.388Z,20.00
2023-03-01T22:40:06.137Z,19.90
2023-03-01T22:42:13.009Z,19.90
2023-03-01T22:44:22.545Z,19.90
2023-03-01T22:46:30.651Z,19.90
2023-03-01T22:48:37.890Z,19.80
2023-03-01T22:50:48.801Z,19.80
2023-03-01T22:52:56.085Z,19.80
2023-03-01T22:55:02.968Z,19.80
2023-03-01T22:57:10.194Z,19.80
2023-03-01T22:59:19.942Z,19.80
2023-03-01T23:01:28.244Z,19.70
2023-03-01T23:03:34.969Z,19.70
2023-03-01T23:05:41.886Z,19.70
2023-03-01T23:07:50.356Z,19.70
2023-03-01T23:09:57.685Z,19.70
2023-03-01T23:12:07.680Z,19.70
2023-03-01T23:14:14.688Z,19.80
2023-03-01T23:16:24.925Z,19.70
2023-03-01T23:18:31.866Z,19.70
2023-03-01T23:20:39.670Z,19.70
2023-03-01T23:22:46.442Z,19.60
2023-03-01T23:24:55.177Z,19.60
2023-03-01T23:27:04.301Z,19.50
2023-03-01T23:29:10.905Z,19.50
2023-03-01T23:31:19.219Z,19.50
2023-03-01T23:33:26.202Z,19.50
2023-03-01T23:35:33.445Z,19.50
2023-03-01T23:37:40.410Z,19.40
2023-03-01T23:39:47.336Z,19.40
2023-03-01T23:41:55.643Z,19.50
2023-03-01T23:44:05.087Z,19.40
2023-03-01T23:46:15.251Z,19.40
2023-03-01T23:48:22.614Z,19.40
2023-03-01T23:50:29.439Z,19.40
2023-03-01T23:52:42.661Z,19.40
2023-03-01T23:54:49.789Z,19.40
2023-03-01T23:56:58.101Z,19.50
2023-03-01T23:59:07.279Z,19.50
